Gallup Municipal Airport
KGUP : now visible

Airfield :











YOU CAN JOIN US ON...

 
LOGIN :

Register | Disclaimer

   EN    FR    IT 

 









Legend :    VFR   Marginal VFR   IFR   Intensive IFR   Very Intensive IFR
Visi :
Ceiling :
>= 8 km
>= 3000ft
5 to 8 km
1000 to 3000 ft
1500m to 5 km
500 to 1000 ft
800 to 1500m
200 to 500 ft
< 800m
< 200 ft
Symbols :   Thunderstorms  Fog  Heavy snow  Heavy precipitations  Wind > 20 kt






- Airport Elevation : 6472 ft
- IATA code : GUP


KGUP - Gallup Municipal

CURRENT METAR :
  • 030853Z AUTO 25004KT 10SM CLR 16/08 A3029 RMK AO2 SLP068 T01610083 58003

EXPIRED METARs :
  • 030753Z AUTO 11003KT 10SM CLR 18/08 A3029 RMK AO2 SLP051 T01830083
  • 030653Z AUTO 19008KT 10SM CLR 21/08 A3030 RMK AO2 SLP053 T02060083 403440161
  • 030553Z AUTO VRB05KT 10SM CLR 22/08 A3030 RMK AO2 SLP053 60000 T02170078 10311 20217 51024

TAF KGUP
Valid from the 03 at 06:00 until the 04 at 06:00 UTC


030540Z 0306/0406 17011KT P6SM SCT100
FM031600 23008KT P6SM FEW120
FM032000 27010G20KT P6SM SCT120
KZAB FIR / North America



MET'MAP, your aeronautical weather chart ! - Copyright ORBIFLY December 2007 - Disclaimer

ORBIFLY MET'MAP TEAM :

Programming & Development : Alexandra Zaïnal
Concept & original design : Baudouin d'Aumeries
Assistance for programming : Marc-Olivier Méhu
Technical & hardware support : Manuel Goepfert

Contact : metmap@orbifly.com




SOURCES & CREDITS :

   NOAA       Earth
Advisory